KRAL

Riverside Municipal Airport

Riverside, California, USA
METAR KRAL 181453Z 07003KT 10SM CLR 14/04 A3009 RMK AO2 SLP178 T01390039 51010
Observed Flight Rules
Oct-18 @ 14:53 UTC (an hour ago) Visual Flight Rules
Wind Visibility Clouds
70° at 3 knots 10 miles
  • Clear skies
Temperatures Readings
Current 14°C / 57°F
Dewpoint 4°C / 39°F
Humidity 51%
Altimeter 30.09" Hg
Pressure 1017.8 hPa
Elevation 252
METAR KRAL 181453Z 07003KT 10SM CLR 14/04 A3009 RMK AO2 SLP178 T01390039 51010
Observed Flight Rules
Oct-18 @ 14:53 UTC
(an hour ago)
VFR
Wind Visibility
70° at 3 knots 10 miles
Clouds
  • Clear skies
Temperature Dewpoint
14°C / 57°F 4°C / 39°F
Humidity Altimeter Pressure
51% 30.09" Hg 1017.8 hPa